White Heath, Illinois
Current Conditions -  °F | °C
As of 12:53 AM on Thursday 23 Oct 2014 (Local Time) from KCMI Reporting Station
Clear Clear  
Wind Chill: 34°   Ceiling: Unl
Heat Index: 39°   Visibility: 10mi
Dew Point: 35°   Wind: 7mph
Humidity: 86%   Direction: 100°E
Pressure: 30.26"   Gusts: NA
Location:  40.08°N, 88.51°W
Report Text: KCMI 230553Z AUTO 10006KT 10SM R32R/2000V2200FT CLR 04/02 A3026 RMK AO2 SLP248 T00390017 10083 20039 401560006 56002 $
Loading
Personal Weather Stations






























Interactive Weather Map
Tropical Storm Tracking
New forecast layout! Learn more

10-Day Weather Forecast

Advertisements
Track Severe Weather on mobile